createdAt,value
2017-07-18T03:30:26.443Z,176
2017-07-18T03:31:27.795Z,188
2017-07-18T03:32:49.319Z,204
2017-07-18T03:33:50.673Z,220
2017-07-18T03:35:12.179Z,236
2017-07-18T03:36:13.534Z,252
2017-07-18T03:37:35.062Z,272
2017-07-18T03:38:36.420Z,288
2017-07-18T03:39:57.930Z,312
2017-07-18T03:40:59.290Z,328
2017-07-18T03:42:20.819Z,352
2017-07-18T03:43:22.176Z,368
2017-07-18T03:44:43.686Z,392
2017-07-18T03:45:45.048Z,412
2017-07-18T03:47:06.577Z,432
2017-07-18T03:48:07.936Z,452
2017-07-18T03:49:29.447Z,476
2017-07-18T03:50:30.809Z,492
2017-07-18T03:51:52.336Z,516
2017-07-18T03:52:53.699Z,540
2017-07-18T03:54:15.212Z,580
2017-07-18T03:55:16.608Z,628
2017-07-18T03:56:38.102Z,704
2017-07-18T03:57:39.461Z,828
2017-07-18T03:59:00.981Z,1020
2017-07-18T04:00:02.342Z,1060
2017-07-18T04:01:23.851Z,1228
2017-07-18T04:02:25.219Z,1460
2017-07-18T04:03:46.748Z,1680
2017-07-18T04:04:48.110Z,1912
2017-07-18T04:06:09.628Z,1908
2017-07-18T04:07:10.991Z,1756
2017-07-18T04:08:32.525Z,1616
2017-07-18T04:09:33.887Z,1700
2017-07-18T04:10:55.410Z,1776
2017-07-18T04:11:56.773Z,1748
2017-07-18T04:13:18.304Z,1792
2017-07-18T04:14:19.670Z,1760
2017-07-18T04:15:41.186Z,1740
2017-07-18T04:16:42.551Z,1764
2017-07-18T04:18:04.084Z,1912
2017-07-18T04:19:05.447Z,1896
2017-07-18T04:20:26.967Z,1752
2017-07-18T04:21:28.332Z,1736
2017-07-18T04:22:49.871Z,1980
2017-07-18T04:23:51.235Z,2336
2017-07-18T04:25:12.752Z,2692
2017-07-18T04:26:14.119Z,2748
2017-07-18T04:27:35.865Z,2864
2017-07-18T04:28:37.233Z,3004
2017-07-18T04:29:58.754Z,3336
2017-07-18T04:31:00.115Z,3284
2017-07-18T04:32:21.655Z,3316
2017-07-18T04:33:23.019Z,3640
2017-07-18T04:34:44.540Z,3740
2017-07-18T04:35:45.903Z,3824
2017-07-18T04:37:08.435Z,3960
2017-07-18T04:38:09.803Z,4076
2017-07-18T04:39:31.325Z,4212
2017-07-18T04:40:32.692Z,4288
2017-07-18T04:41:54.229Z,4404
2017-07-18T04:42:55.597Z,4460
2017-07-18T04:44:17.130Z,4516
2017-07-18T04:45:18.486Z,4540
2017-07-18T04:46:40.011Z,4556
2017-07-18T04:47:41.371Z,4524
2017-07-18T04:49:02.913Z,4484
2017-07-18T04:50:04.279Z,4696
2017-07-18T04:51:25.803Z,4836
2017-07-18T04:52:27.170Z,4908
2017-07-18T04:53:48.713Z,4984
2017-07-18T04:54:50.082Z,5036
2017-07-18T04:56:11.601Z,5116
2017-07-18T04:57:12.970Z,5208
2017-07-18T04:58:34.516Z,5464
2017-07-18T04:59:35.882Z,5608
2017-07-18T05:00:57.408Z,5784
2017-07-18T05:01:58.775Z,5796
2017-07-18T05:03:20.316Z,5888
2017-07-18T05:04:21.685Z,6020
2017-07-18T05:05:43.210Z,6248
2017-07-18T05:06:44.580Z,6392
2017-07-18T05:08:06.125Z,6600
2017-07-18T05:09:07.488Z,6756
2017-07-18T05:10:29.015Z,6952
2017-07-18T05:11:30.383Z,7060
2017-07-18T05:12:51.928Z,7128
2017-07-18T05:13:53.296Z,7328
2017-07-18T05:15:14.820Z,7460
2017-07-18T05:16:16.201Z,7292
2017-07-18T05:17:37.734Z,7124
2017-07-18T05:18:39.105Z,7040
2017-07-18T05:20:00.649Z,6944
2017-07-18T05:21:02.020Z,6908
2017-07-18T05:22:23.567Z,6948
2017-07-18T05:23:24.936Z,6964
2017-07-18T05:24:46.464Z,7000
2017-07-18T05:25:47.833Z,7024
2017-07-18T05:27:09.379Z,7024
2017-07-18T05:28:10.749Z,7016
2017-07-18T05:29:32.274Z,7020
2017-07-18T05:30:33.644Z,6988
2017-07-18T05:31:55.172Z,6980
2017-07-18T05:32:56.546Z,6660
2017-07-18T05:34:18.092Z,6964
2017-07-18T05:35:19.464Z,6984
2017-07-18T05:36:40.990Z,6944
2017-07-18T05:37:42.361Z,7064
2017-07-18T05:39:03.909Z,7212
2017-07-18T05:40:05.280Z,7272
2017-07-18T05:41:26.804Z,7488
2017-07-18T05:42:28.176Z,7536
2017-07-18T05:43:49.721Z,7584
2017-07-18T05:44:51.092Z,7624
2017-07-18T05:46:12.618Z,7652
2017-07-18T05:47:13.986Z,7724
2017-07-18T05:48:35.535Z,7948
2017-07-18T05:49:36.901Z,7916
2017-07-18T05:50:58.428Z,7808
2017-07-18T05:51:59.803Z,7660
2017-07-18T05:53:21.348Z,7420
2017-07-18T05:54:22.720Z,7440
2017-07-18T05:55:44.245Z,7492
2017-07-18T05:56:45.619Z,7760
2017-07-18T05:58:07.175Z,7864
2017-07-18T05:59:08.538Z,7908
2017-07-18T06:00:30.064Z,7468
2017-07-18T06:01:31.436Z,7476
2017-07-18T06:02:52.984Z,7576
2017-07-18T06:03:54.353Z,8140
2017-07-18T06:05:15.882Z,8132
2017-07-18T06:06:17.255Z,8100
2017-07-18T06:07:38.802Z,8112
2017-07-18T06:08:40.175Z,7752
2017-07-18T06:10:01.700Z,8176
2017-07-18T06:11:03.075Z,8292
2017-07-18T06:12:24.620Z,8396
2017-07-18T06:13:25.991Z,8464
2017-07-18T06:14:47.521Z,8588
2017-07-18T06:15:48.899Z,8652
2017-07-18T06:17:10.424Z,8316
2017-07-18T06:18:11.796Z,8752
2017-07-18T06:19:33.343Z,8856
2017-07-18T06:20:34.715Z,8928
2017-07-18T06:21:56.243Z,8976
2017-07-18T06:22:57.617Z,8956
2017-07-18T06:24:19.168Z,8944
2017-07-18T06:25:20.536Z,7960
2017-07-18T06:26:42.066Z,8148
2017-07-18T06:27:43.437Z,8432
2017-07-18T06:29:04.987Z,8880
2017-07-18T06:30:06.359Z,9508
2017-07-18T06:31:27.888Z,10208
2017-07-18T06:32:29.258Z,10508
2017-07-18T06:33:50.807Z,11236
2017-07-18T06:34:52.180Z,11644
2017-07-18T06:36:13.711Z,12176
2017-07-18T06:37:15.086Z,12476
2017-07-18T06:38:36.635Z,12932
2017-07-18T06:39:38.007Z,12140
2017-07-18T06:41:00.533Z,11480
2017-07-18T06:42:01.911Z,13848
2017-07-18T06:43:23.458Z,13204
2017-07-18T06:44:24.834Z,14852
2017-07-18T06:45:46.363Z,12604
2017-07-18T06:46:47.739Z,12908
2017-07-18T06:48:09.291Z,13736
2017-07-18T06:49:10.675Z,17152
2017-07-18T06:50:32.203Z,13012
2017-07-18T06:51:33.599Z,12240
2017-07-18T06:52:55.126Z,11528
2017-07-18T06:53:56.502Z,11308
2017-07-18T06:55:18.033Z,10844
2017-07-18T06:56:19.409Z,10404
2017-07-18T06:57:40.953Z,9956
2017-07-18T06:58:42.336Z,10336
2017-07-18T07:00:03.862Z,10140
2017-07-18T07:01:05.238Z,11396
2017-07-18T07:02:26.769Z,13208
2017-07-18T07:03:28.144Z,11908
2017-07-18T07:04:49.693Z,12536
2017-07-18T07:05:51.066Z,15000
2017-07-18T07:07:12.598Z,13976
2017-07-18T07:08:13.970Z,15444
2017-07-18T07:09:35.516Z,13472
2017-07-18T07:10:36.891Z,13756
2017-07-18T07:11:58.417Z,13428
2017-07-18T07:12:59.793Z,13844
2017-07-18T07:14:21.338Z,11772
2017-07-18T07:15:22.712Z,13888
2017-07-18T07:16:44.244Z,10176
2017-07-18T07:17:45.620Z,13752
2017-07-18T07:19:07.167Z,13068
2017-07-18T07:20:08.543Z,13456
2017-07-18T07:21:30.073Z,9396
2017-07-18T07:22:31.446Z,10044
2017-07-18T07:23:52.996Z,9488
2017-07-18T07:24:54.391Z,9040
2017-07-18T07:26:15.915Z,8012
2017-07-18T07:27:17.272Z,8724
2017-07-18T07:28:38.820Z,7292
2017-07-18T07:29:40.195Z,6808
2017-07-18T07:31:01.725Z,6064
2017-07-18T07:32:03.099Z,5740
2017-07-18T07:33:24.641Z,6200
2017-07-18T07:34:26.011Z,6132
2017-07-18T07:35:47.540Z,6260
2017-07-18T07:36:48.912Z,6504
2017-07-18T07:38:10.464Z,6640
2017-07-18T07:39:11.829Z,6676
2017-07-18T07:40:33.355Z,6600
2017-07-18T07:41:34.764Z,6136
2017-07-18T07:42:56.306Z,5504
2017-07-18T07:43:57.677Z,5152
2017-07-18T07:45:19.223Z,4716
2017-07-18T07:46:20.593Z,4636
2017-07-18T07:47:42.123Z,4908
2017-07-18T07:48:43.486Z,5012
2017-07-18T07:50:05.029Z,5608
2017-07-18T07:51:06.399Z,5796
2017-07-18T07:52:27.924Z,5880
2017-07-18T07:53:29.295Z,5952
2017-07-18T07:54:50.838Z,5912
2017-07-18T07:55:52.206Z,5872
2017-07-18T07:57:13.735Z,6092
2017-07-18T07:58:15.106Z,6160
2017-07-18T07:59:36.650Z,6048
2017-07-18T08:00:38.016Z,5792
2017-07-18T08:01:59.542Z,5404
2017-07-18T08:03:00.912Z,5180
2017-07-18T08:04:22.452Z,5264
2017-07-18T08:05:23.823Z,5492
2017-07-18T08:06:45.347Z,5932
2017-07-18T08:07:46.716Z,6144
2017-07-18T08:09:08.258Z,6292
2017-07-18T08:10:09.627Z,6328
2017-07-18T08:11:31.154Z,6188
2017-07-18T08:12:32.521Z,6100
2017-07-18T08:13:54.065Z,6168
2017-07-18T08:14:55.449Z,6388
2017-07-18T08:16:17.182Z,6820
2017-07-18T08:17:18.566Z,6736
2017-07-18T08:18:40.135Z,6612
2017-07-18T08:19:41.508Z,6444
2017-07-18T08:21:03.158Z,6640
2017-07-18T08:22:04.646Z,6804
2017-07-18T08:23:26.202Z,7080
2017-07-18T08:24:27.569Z,7244
2017-07-18T08:25:49.092Z,7452
2017-07-18T08:26:50.467Z,7592
2017-07-18T08:28:11.996Z,7660
2017-07-18T08:29:13.368Z,7648
2017-07-18T08:30:34.907Z,7560
2017-07-18T08:31:36.275Z,7384
2017-07-18T08:32:57.806Z,7056
2017-07-18T08:33:59.208Z,7012
2017-07-18T08:35:20.891Z,7068
2017-07-18T08:36:22.266Z,7064
2017-07-18T08:37:43.789Z,7144
2017-07-18T08:38:45.159Z,7148
2017-07-18T08:40:06.704Z,7348
2017-07-18T08:41:08.098Z,7408
2017-07-18T08:42:30.103Z,7248
2017-07-18T08:43:31.352Z,7072
2017-07-18T08:44:52.902Z,6888
2017-07-18T08:45:54.268Z,6992
2017-07-18T08:47:16.644Z,6988
2017-07-18T08:48:18.068Z,6852
2017-07-18T08:49:39.618Z,6612
2017-07-18T08:50:40.984Z,6412
2017-07-18T08:52:02.514Z,6028
2017-07-18T08:53:03.888Z,6188
2017-07-18T08:54:25.435Z,6320
2017-07-18T08:55:26.802Z,6344
2017-07-18T08:56:48.344Z,6496
2017-07-18T08:57:49.717Z,6408
2017-07-18T08:59:11.414Z,6168
2017-07-18T09:00:12.785Z,6076
2017-07-18T09:01:34.304Z,5688
2017-07-18T09:02:35.677Z,5740
2017-07-18T09:03:57.277Z,5168
2017-07-18T09:04:58.651Z,5060
2017-07-18T09:06:20.360Z,5076
2017-07-18T09:07:21.731Z,5004
2017-07-18T09:08:43.314Z,4936
2017-07-18T09:09:44.881Z,4788
2017-07-18T09:11:06.460Z,4308
2017-07-18T09:12:07.860Z,4208
2017-07-18T09:13:29.450Z,3804
2017-07-18T09:14:30.868Z,3788
2017-07-18T09:15:52.471Z,3736
2017-07-18T09:16:53.873Z,3672
2017-07-18T09:18:15.434Z,3596
2017-07-18T09:19:16.856Z,3552
2017-07-18T09:20:38.472Z,3536
2017-07-18T09:21:39.850Z,3520
2017-07-18T09:23:01.432Z,3444
2017-07-18T09:24:02.824Z,3424
2017-07-18T09:25:24.444Z,3468
2017-07-18T09:26:26.053Z,3444
2017-07-18T09:27:47.598Z,3500
2017-07-18T09:28:49.011Z,3540
2017-07-18T09:30:10.591Z,3584
2017-07-18T09:31:12.005Z,3576
2017-07-18T09:32:33.566Z,3524
2017-07-18T09:33:34.971Z,3508
2017-07-18T09:34:56.547Z,3536
2017-07-18T09:35:58.010Z,3580
2017-07-18T09:37:19.558Z,3684
2017-07-18T09:38:21.646Z,3860
2017-07-18T09:39:45.340Z,3952
2017-07-18T15:07:47.464Z,3000
2017-07-18T15:08:48.836Z,3004
2017-07-18T15:10:10.381Z,3012
2017-07-18T15:11:11.753Z,3012
2017-07-18T15:12:33.337Z,3040
2017-07-18T15:13:34.711Z,3068
2017-07-18T15:14:56.253Z,3060
2017-07-18T15:15:57.625Z,3008
2017-07-18T15:17:19.215Z,3000
2017-07-18T15:18:20.585Z,2992
2017-07-18T15:19:42.121Z,2984
2017-07-18T15:20:43.824Z,2976
2017-07-18T15:22:05.356Z,2968
2017-07-18T15:23:06.724Z,2960
2017-07-18T15:24:28.286Z,2956
2017-07-18T15:25:29.673Z,2948
2017-07-18T15:26:51.301Z,2944
2017-07-18T15:27:53.046Z,2932
2017-07-18T17:43:42.319Z,1800
2017-07-18T17:44:43.711Z,1796
2017-07-18T17:46:05.234Z,1804
2017-07-18T17:47:06.600Z,1820
2017-07-18T17:48:28.151Z,1844
2017-07-18T17:49:29.521Z,1836
2017-07-18T17:50:51.048Z,1828
2017-07-18T17:51:52.421Z,1896
2017-07-18T17:53:13.968Z,1848
2017-07-18T17:54:15.338Z,1880
2017-07-18T17:55:36.885Z,1936
2017-07-18T17:56:38.418Z,1968
2017-07-18T17:57:59.947Z,2024
2017-07-18T17:59:01.320Z,2076
2017-07-18T18:00:22.870Z,2168
2017-07-18T18:01:24.329Z,2232
2017-07-18T18:02:45.871Z,2288
2017-07-18T18:03:47.244Z,2304
2017-07-18T18:05:08.960Z,2316
2017-07-18T18:06:10.569Z,2328
2017-07-18T18:07:32.336Z,2360
2017-07-18T18:08:33.713Z,2384
2017-07-18T18:09:55.263Z,2428
2017-07-18T18:10:56.633Z,2448
2017-07-18T18:12:18.156Z,2452
2017-07-18T18:13:19.545Z,2432
2017-07-18T18:14:41.075Z,2392
2017-07-18T18:15:42.445Z,2364
2017-07-18T18:17:04.020Z,2332
2017-07-18T18:18:05.391Z,2296
2017-07-18T18:19:26.974Z,2236
2017-07-18T18:20:28.359Z,2184
2017-07-18T18:21:49.908Z,2116
2017-07-18T18:22:51.279Z,2072
2017-07-18T18:24:12.833Z,2000
2017-07-18T18:25:14.203Z,1936
2017-07-18T18:26:35.878Z,1852
2017-07-18T18:27:37.249Z,1788
2017-07-18T18:28:58.793Z,1716
2017-07-18T18:30:00.162Z,1660
2017-07-18T18:31:21.693Z,1588
2017-07-18T18:32:23.062Z,1532
2017-07-18T18:33:44.602Z,1452
2017-07-18T18:34:45.975Z,1392
2017-07-18T18:36:07.503Z,1316
2017-07-18T18:37:08.878Z,1272
2017-07-18T18:38:30.393Z,1216
2017-07-18T18:39:31.764Z,1184
2017-07-18T18:40:53.310Z,1136
2017-07-18T18:41:54.680Z,1100
2017-07-18T18:43:16.201Z,1056
2017-07-18T18:44:17.572Z,1020
2017-07-18T18:45:39.114Z,972
2017-07-18T18:46:40.480Z,944
2017-07-18T18:48:02.006Z,904
2017-07-18T18:49:03.376Z,876
2017-07-18T18:50:24.918Z,844
2017-07-18T18:51:26.283Z,820
2017-07-18T18:52:47.808Z,788
2017-07-18T18:53:49.177Z,768
2017-07-18T18:55:10.718Z,740
2017-07-18T18:56:12.090Z,720
2017-07-18T18:57:33.613Z,700
2017-07-18T18:58:34.997Z,688
2017-07-18T18:59:56.538Z,680
2017-07-18T19:00:57.907Z,672
2017-07-18T19:02:19.435Z,660
2017-07-18T19:03:20.801Z,648
2017-07-18T19:04:42.496Z,608
2017-07-18T19:05:43.868Z,564
2017-07-18T19:07:05.390Z,516
2017-07-18T19:08:06.759Z,492
2017-07-18T19:09:28.305Z,468
2017-07-18T19:10:29.672Z,448
2017-07-18T19:11:51.201Z,424
2017-07-18T19:12:52.565Z,408
2017-07-18T19:14:14.118Z,396
2017-07-18T19:15:15.484Z,392
2017-07-18T19:16:37.010Z,388
2017-07-18T19:17:38.377Z,376
2017-07-18T19:18:59.902Z,360
2017-07-18T19:20:01.270Z,348
2017-07-18T19:21:22.811Z,324
2017-07-18T19:22:24.177Z,312
2017-07-18T19:23:45.701Z,288
2017-07-18T19:24:47.071Z,276
2017-07-18T19:26:08.607Z,256
2017-07-18T19:27:09.974Z,244
2017-07-18T19:28:31.495Z,228
2017-07-18T19:29:32.863Z,216
2017-07-18T19:30:54.403Z,200
2017-07-18T19:31:55.772Z,188
2017-07-18T19:33:17.303Z,168
2017-07-18T19:34:18.664Z,156
2017-07-18T19:35:40.207Z,144
2017-07-18T19:36:41.574Z,132
2017-07-18T19:38:03.141Z,120
2017-07-18T19:39:04.508Z,112
2017-07-18T19:40:26.048Z,104
2017-07-18T19:41:27.414Z,96
2017-07-18T19:42:48.935Z,88
2017-07-18T19:43:50.323Z,76
2017-07-18T19:45:11.864Z,68
2017-07-18T19:46:13.231Z,64
2017-07-18T19:47:34.752Z,56
2017-07-18T19:48:36.118Z,56
2017-07-18T19:49:57.658Z,48
2017-07-18T19:50:59.023Z,40
2017-07-18T19:52:20.543Z,36
2017-07-18T19:53:21.912Z,32
2017-07-18T19:54:43.454Z,28
2017-07-18T19:55:44.825Z,24
2017-07-18T19:57:06.338Z,20
2017-07-18T19:58:07.703Z,20
2017-07-18T19:59:29.596Z,16
2017-07-18T20:00:30.954Z,12
2017-07-18T20:01:52.515Z,12
2017-07-18T20:02:53.880Z,12
2017-07-18T20:04:15.405Z,12
2017-07-18T20:05:16.768Z,8
2017-07-18T20:06:38.307Z,8
2017-07-18T20:07:39.671Z,4
2017-07-18T20:09:01.281Z,4
2017-07-18T20:10:02.647Z,4
2017-07-18T20:11:24.184Z,4
2017-07-18T20:12:25.548Z,4
2017-07-18T20:13:47.074Z,0
2017-07-18T20:14:48.444Z,4
2017-07-18T20:16:09.967Z,4
2017-07-18T20:17:11.334Z,4
2017-07-18T20:18:32.851Z,0
2017-07-18T20:19:34.215Z,0
2017-07-18T20:20:55.751Z,0
2017-07-18T20:21:57.114Z,0
2017-07-18T20:23:18.634Z,0
2017-07-18T20:24:19.995Z,0
2017-07-18T20:25:41.535Z,0
2017-07-18T20:26:42.898Z,0
2017-07-18T20:28:04.416Z,0
2017-07-18T20:29:05.782Z,0
2017-07-18T20:30:27.318Z,0
2017-07-18T20:31:28.682Z,0
2017-07-18T20:32:50.201Z,0
2017-07-18T20:33:51.566Z,0
2017-07-18T20:35:13.107Z,0
2017-07-18T20:36:14.467Z,0
2017-07-18T20:37:35.988Z,0
2017-07-18T20:38:37.351Z,0
2017-07-18T20:39:58.885Z,0
2017-07-18T20:41:00.271Z,0
2017-07-18T20:42:21.768Z,0
2017-07-18T20:43:23.133Z,0
2017-07-18T20:44:44.648Z,0
2017-07-18T20:45:46.014Z,0
2017-07-18T20:47:07.547Z,0
2017-07-18T20:48:08.910Z,0
2017-07-18T20:49:30.428Z,0
2017-07-18T20:50:31.794Z,0
2017-07-18T20:51:53.326Z,0
2017-07-18T20:52:54.690Z,0
2017-07-18T20:54:16.703Z,0
2017-07-18T20:55:18.064Z,0
2017-07-18T20:56:39.607Z,0
2017-07-18T20:57:40.965Z,0
2017-07-18T20:59:02.480Z,0
2017-07-18T21:00:03.843Z,0
2017-07-18T21:01:25.380Z,0
2017-07-18T21:02:26.743Z,0
2017-07-18T21:03:48.262Z,0
2017-07-18T21:04:49.627Z,0
2017-07-18T21:06:11.160Z,0
2017-07-18T21:07:12.524Z,0
2017-07-18T21:08:34.040Z,0
2017-07-18T21:09:35.405Z,0
2017-07-18T21:10:56.942Z,0
2017-07-18T21:11:58.304Z,0
2017-07-18T21:13:19.819Z,0
2017-07-18T21:14:21.183Z,0
2017-07-18T21:15:42.717Z,0
2017-07-18T21:16:44.080Z,0
2017-07-18T21:18:05.602Z,0
2017-07-18T21:19:06.968Z,0
2017-07-18T21:20:28.502Z,0
2017-07-18T21:21:29.867Z,0
2017-07-18T21:22:51.665Z,0
2017-07-18T21:23:53.328Z,0
2017-07-18T21:25:15.159Z,0
2017-07-18T21:26:16.820Z,0
2017-07-18T21:27:39.208Z,0
2017-07-18T21:28:40.861Z,0
2017-07-18T21:30:02.674Z,0
2017-07-18T21:31:04.320Z,0
2017-07-18T21:32:26.178Z,0
2017-07-18T21:33:27.805Z,0
2017-07-18T21:34:49.632Z,0
2017-07-18T21:35:51.005Z,0
2017-07-18T21:37:12.560Z,0
2017-07-18T21:38:13.948Z,0
2017-07-18T21:39:35.988Z,0
2017-07-18T21:40:37.374Z,0
2017-07-18T21:41:58.935Z,0
2017-07-18T21:43:00.311Z,0
2017-07-18T21:44:21.849Z,0
2017-07-18T21:45:23.235Z,0
2017-07-18T21:46:44.782Z,0
2017-07-18T21:47:46.155Z,0
2017-07-18T21:49:07.679Z,0
2017-07-18T21:50:09.049Z,0
2017-07-18T21:51:30.606Z,0
2017-07-18T21:52:32.046Z,0
2017-07-18T21:53:53.576Z,0
2017-07-18T21:54:54.982Z,0
2017-07-18T21:56:16.538Z,0
2017-07-18T21:57:17.911Z,0
2017-07-18T21:58:39.439Z,0
2017-07-18T21:59:40.815Z,0
2017-07-18T22:01:02.379Z,0
2017-07-18T22:02:03.755Z,0
2017-07-18T22:03:25.280Z,0
2017-07-18T22:04:26.650Z,0
2017-07-18T22:05:48.222Z,0
2017-07-18T22:06:49.594Z,0
2017-07-18T22:08:11.122Z,0
2017-07-18T22:09:12.496Z,0
2017-07-18T22:10:34.026Z,0
2017-07-18T22:11:35.400Z,0
2017-07-18T22:12:56.956Z,0
2017-07-18T22:13:58.327Z,0
2017-07-18T22:15:19.850Z,0
2017-07-18T22:16:21.495Z,0
2017-07-18T22:17:43.233Z,0
2017-07-18T22:18:44.675Z,0
2017-07-18T22:20:06.438Z,0
2017-07-18T22:21:07.807Z,0
2017-07-18T22:22:29.370Z,0
2017-07-18T22:23:30.778Z,0
2017-07-18T22:24:53.071Z,0
2017-07-18T22:25:54.443Z,0
2017-07-18T22:27:16.002Z,0
2017-07-18T22:28:17.380Z,0
2017-07-18T22:29:39.160Z,0
2017-07-18T22:30:40.730Z,0
2017-07-18T22:32:02.564Z,0
2017-07-18T22:33:04.125Z,0
2017-07-18T22:34:25.971Z,0
2017-07-18T22:35:27.454Z,0
2017-07-18T22:36:49.205Z,0
2017-07-18T22:37:50.708Z,0
2017-07-18T22:39:12.362Z,0
2017-07-18T22:40:13.918Z,0
2017-07-18T22:41:35.659Z,0
2017-07-18T22:42:37.133Z,0
2017-07-18T22:43:58.784Z,0
2017-07-18T22:45:00.284Z,0
2017-07-18T22:46:22.061Z,0
2017-07-18T22:47:23.647Z,0
2017-07-18T22:48:45.343Z,0
2017-07-18T22:49:46.963Z,0
2017-07-18T22:51:08.747Z,0
2017-07-18T22:52:10.225Z,0
2017-07-18T22:53:31.801Z,0
2017-07-18T22:54:33.269Z,0
2017-07-18T22:55:54.939Z,0
2017-07-18T22:56:56.453Z,0
2017-07-18T22:58:18.062Z,0
2017-07-18T22:59:19.663Z,0
2017-07-18T23:00:41.357Z,0
2017-07-18T23:01:42.829Z,0
2017-07-18T23:03:04.511Z,0
2017-07-18T23:04:06.034Z,0
2017-07-18T23:05:27.772Z,0
2017-07-18T23:06:29.169Z,0
2017-07-18T23:07:50.882Z,0
2017-07-18T23:08:52.473Z,0
2017-07-18T23:10:14.143Z,0
2017-07-18T23:11:15.736Z,0
2017-07-18T23:12:37.480Z,0
2017-07-18T23:13:39.074Z,0
2017-07-18T23:15:00.718Z,0
2017-07-18T23:16:02.144Z,0
2017-07-18T23:17:23.921Z,0
2017-07-18T23:18:25.443Z,0
2017-07-18T23:19:47.003Z,0
2017-07-18T23:20:48.573Z,0
2017-07-18T23:22:10.221Z,0
2017-07-18T23:23:11.705Z,0
2017-07-18T23:24:33.280Z,0
2017-07-18T23:25:34.687Z,0
2017-07-18T23:26:56.386Z,0
2017-07-18T23:27:57.969Z,0
2017-07-18T23:29:19.592Z,0
2017-07-18T23:30:21.160Z,0
2017-07-18T23:31:42.880Z,0
2017-07-18T23:32:44.452Z,0
2017-07-18T23:34:06.202Z,0
2017-07-18T23:35:07.747Z,0
2017-07-18T23:36:29.608Z,0
2017-07-18T23:37:31.172Z,0
2017-07-18T23:38:52.938Z,0
2017-07-18T23:39:54.351Z,0
2017-07-18T23:41:16.003Z,0
2017-07-18T23:42:17.465Z,0
2017-07-18T23:43:39.025Z,0
2017-07-18T23:44:40.498Z,0
2017-07-18T23:46:02.162Z,0
2017-07-18T23:47:03.748Z,0
2017-07-18T23:48:25.452Z,0
2017-07-18T23:49:26.838Z,0
2017-07-18T23:50:48.361Z,0
2017-07-18T23:51:49.762Z,0
2017-07-18T23:53:11.365Z,0
2017-07-18T23:54:12.848Z,0
2017-07-18T23:55:34.405Z,0
2017-07-18T23:56:35.784Z,0
2017-07-18T23:57:57.388Z,0
2017-07-18T23:58:58.763Z,0
